sensor_id;sensor_type;location;lat;lon;timestamp;P1;durP1;ratioP1;P2;durP2;ratioP2
51298;SDS011;37382;45.192;9.790;2023-02-19T05:03:51;13.57;;;12.15;;
51298;SDS011;37382;45.192;9.790;2023-02-19T05:06:19;15.35;;;13.68;;
51298;SDS011;37382;45.192;9.790;2023-02-19T05:08:47;15.30;;;13.25;;
51298;SDS011;37382;45.192;9.790;2023-02-19T05:11:14;15.85;;;14.07;;
51298;SDS011;37382;45.192;9.790;2023-02-19T05:13:42;15.13;;;13.40;;
51298;SDS011;37382;45.192;9.790;2023-02-19T05:16:10;16.65;;;14.05;;
51298;SDS011;37382;45.192;9.790;2023-02-19T05:18:40;17.20;;;14.45;;
51298;SDS011;37382;45.192;9.790;2023-02-19T05:21:11;19.35;;;14.50;;
51298;SDS011;37382;45.192;9.790;2023-02-19T05:23:39;18.95;;;15.07;;
51298;SDS011;37382;45.192;9.790;2023-02-19T05:26:08;16.10;;;13.50;;
51298;SDS011;37382;45.192;9.790;2023-02-19T05:28:39;26.73;;;19.80;;
51298;SDS011;37382;45.192;9.790;2023-02-19T05:31:07;20.45;;;16.38;;
51298;SDS011;37382;45.192;9.790;2023-02-19T05:33:36;19.73;;;15.00;;
51298;SDS011;37382;45.192;9.790;2023-02-19T05:36:05;20.52;;;15.23;;
51298;SDS011;37382;45.192;9.790;2023-02-19T05:38:34;16.63;;;14.75;;
51298;SDS011;37382;45.192;9.790;2023-02-19T05:43:41;21.10;;;16.73;;
51298;SDS011;37382;45.192;9.790;2023-02-19T05:46:10;21.15;;;16.40;;
51298;SDS011;37382;45.192;9.790;2023-02-19T05:48:40;18.75;;;15.93;;
51298;SDS011;37382;45.192;9.790;2023-02-19T05:51:12;19.30;;;15.20;;
51298;SDS011;37382;45.192;9.790;2023-02-19T05:53:41;19.33;;;16.88;;
51298;SDS011;37382;45.192;9.790;2023-02-19T05:56:26;23.25;;;17.95;;
51298;SDS011;37382;45.192;9.790;2023-02-19T05:59:00;31.92;;;22.30;;
51298;SDS011;37382;45.192;9.790;2023-02-19T06:01:30;32.42;;;21.85;;
51298;SDS011;37382;45.192;9.790;2023-02-19T06:03:58;28.52;;;21.30;;
51298;SDS011;37382;45.192;9.790;2023-02-19T06:06:27;26.15;;;19.98;;
51298;SDS011;37382;45.192;9.790;2023-02-19T06:08:54;27.88;;;20.17;;
51298;SDS011;37382;45.192;9.790;2023-02-19T06:11:22;27.23;;;20.33;;
51298;SDS011;37382;45.192;9.790;2023-02-19T06:13:50;26.60;;;20.05;;
51298;SDS011;37382;45.192;9.790;2023-02-19T06:16:17;27.27;;;20.42;;
51298;SDS011;37382;45.192;9.790;2023-02-19T06:18:45;26.23;;;20.92;;
51298;SDS011;37382;45.192;9.790;2023-02-19T06:21:13;24.73;;;20.27;;
51298;SDS011;37382;45.192;9.790;2023-02-19T06:23:43;25.33;;;20.52;;
51298;SDS011;37382;45.192;9.790;2023-02-19T06:26:12;24.98;;;19.65;;
51298;SDS011;37382;45.192;9.790;2023-02-19T06:28:40;27.38;;;21.23;;
51298;SDS011;37382;45.192;9.790;2023-02-19T06:31:08;25.20;;;20.48;;
51298;SDS011;37382;45.192;9.790;2023-02-19T06:33:38;28.92;;;21.15;;
51298;SDS011;37382;45.192;9.790;2023-02-19T06:36:07;27.60;;;22.15;;
51298;SDS011;37382;45.192;9.790;2023-02-19T06:38:38;28.40;;;21.58;;
51298;SDS011;37382;45.192;9.790;2023-02-19T06:41:05;29.50;;;22.05;;
51298;SDS011;37382;45.192;9.790;2023-02-19T06:43:34;30.38;;;23.70;;
51298;SDS011;37382;45.192;9.790;2023-02-19T06:46:03;30.60;;;24.88;;
51298;SDS011;37382;45.192;9.790;2023-02-19T06:48:32;29.80;;;24.45;;
51298;SDS011;37382;45.192;9.790;2023-02-19T06:51:00;37.67;;;26.63;;
51298;SDS011;37382;45.192;9.790;2023-02-19T06:53:28;32.72;;;24.27;;
51298;SDS011;37382;45.192;9.790;2023-02-19T06:56:00;37.28;;;25.85;;
51298;SDS011;37382;45.192;9.790;2023-02-19T06:58:29;39.70;;;27.90;;
51298;SDS011;37382;45.192;9.790;2023-02-19T07:00:57;34.28;;;26.10;;
51298;SDS011;37382;45.192;9.790;2023-02-19T07:03:25;45.05;;;33.90;;
51298;SDS011;37382;45.192;9.790;2023-02-19T07:05:53;44.15;;;30.23;;
51298;SDS011;37382;45.192;9.790;2023-02-19T07:08:20;42.38;;;29.92;;
51298;SDS011;37382;45.192;9.790;2023-02-19T07:10:54;40.67;;;29.85;;
51298;SDS011;37382;45.192;9.790;2023-02-19T07:13:25;44.80;;;30.77;;
51298;SDS011;37382;45.192;9.790;2023-02-19T07:16:00;47.13;;;29.90;;
51298;SDS011;37382;45.192;9.790;2023-02-19T07:18:30;40.60;;;29.33;;
51298;SDS011;37382;45.192;9.790;2023-02-19T07:21:05;35.95;;;27.65;;
51298;SDS011;37382;45.192;9.790;2023-02-19T07:23:38;35.10;;;28.23;;
51298;SDS011;37382;45.192;9.790;2023-02-19T07:26:10;36.88;;;28.50;;
51298;SDS011;37382;45.192;9.790;2023-02-19T07:28:42;33.90;;;27.40;;
51298;SDS011;37382;45.192;9.790;2023-02-19T07:33:41;33.95;;;27.23;;
51298;SDS011;37382;45.192;9.790;2023-02-19T07:36:10;41.35;;;26.55;;
51298;SDS011;37382;45.192;9.790;2023-02-19T07:38:39;46.72;;;27.38;;
51298;SDS011;37382;45.192;9.790;2023-02-19T07:41:07;51.75;;;28.45;;
51298;SDS011;37382;45.192;9.790;2023-02-19T07:43:35;48.20;;;28.48;;
51298;SDS011;37382;45.192;9.790;2023-02-19T07:46:04;45.92;;;27.40;;
51298;SDS011;37382;45.192;9.790;2023-02-19T07:48:33;47.30;;;26.40;;
51298;SDS011;37382;45.192;9.790;2023-02-19T07:51:02;56.55;;;28.80;;
51298;SDS011;37382;45.192;9.790;2023-02-19T07:53:30;41.17;;;27.65;;
51298;SDS011;37382;45.192;9.790;2023-02-19T07:56:00;45.90;;;29.20;;
51298;SDS011;37382;45.192;9.790;2023-02-19T07:58:29;43.60;;;28.67;;
51298;SDS011;37382;45.192;9.790;2023-02-19T08:01:04;40.72;;;28.70;;
51298;SDS011;37382;45.192;9.790;2023-02-19T08:03:43;42.90;;;28.45;;
51298;SDS011;37382;45.192;9.790;2023-02-19T08:06:11;38.67;;;28.13;;
51298;SDS011;37382;45.192;9.790;2023-02-19T08:08:39;46.63;;;31.48;;
51298;SDS011;37382;45.192;9.790;2023-02-19T08:11:06;42.58;;;31.48;;
51298;SDS011;37382;45.192;9.790;2023-02-19T08:13:53;40.38;;;30.15;;
51298;SDS011;37382;45.192;9.790;2023-02-19T08:16:20;45.17;;;30.00;;
51298;SDS011;37382;45.192;9.790;2023-02-19T08:19:08;41.30;;;30.40;;
51298;SDS011;37382;45.192;9.790;2023-02-19T08:21:35;37.55;;;28.63;;
51298;SDS011;37382;45.192;9.790;2023-02-19T08:24:03;36.95;;;27.05;;
51298;SDS011;37382;45.192;9.790;2023-02-19T08:26:31;36.67;;;27.58;;
51298;SDS011;37382;45.192;9.790;2023-02-19T08:28:59;38.13;;;25.65;;
51298;SDS011;37382;45.192;9.790;2023-02-19T08:31:27;35.83;;;27.30;;
51298;SDS011;37382;45.192;9.790;2023-02-19T08:33:55;33.00;;;23.60;;
51298;SDS011;37382;45.192;9.790;2023-02-19T08:36:22;35.50;;;23.13;;
51298;SDS011;37382;45.192;9.790;2023-02-19T08:38:50;31.60;;;23.58;;
51298;SDS011;37382;45.192;9.790;2023-02-19T08:41:18;36.75;;;25.15;;
51298;SDS011;37382;45.192;9.790;2023-02-19T08:43:45;28.77;;;22.33;;
51298;SDS011;37382;45.192;9.790;2023-02-19T08:46:12;29.58;;;21.77;;
51298;SDS011;37382;45.192;9.790;2023-02-19T08:48:40;31.63;;;21.23;;
51298;SDS011;37382;45.192;9.790;2023-02-19T08:51:08;32.83;;;22.48;;
51298;SDS011;37382;45.192;9.790;2023-02-19T08:53:38;32.47;;;21.52;;
51298;SDS011;37382;45.192;9.790;2023-02-19T08:56:07;31.48;;;22.20;;
51298;SDS011;37382;45.192;9.790;2023-02-19T08:58:37;30.10;;;21.50;;
51298;SDS011;37382;45.192;9.790;2023-02-19T09:01:07;37.67;;;23.42;;
51298;SDS011;37382;45.192;9.790;2023-02-19T09:03:37;38.72;;;22.70;;
51298;SDS011;37382;45.192;9.790;2023-02-19T09:06:05;34.40;;;22.63;;
51298;SDS011;37382;45.192;9.790;2023-02-19T09:08:33;33.50;;;23.02;;
51298;SDS011;37382;45.192;9.790;2023-02-19T09:11:01;35.80;;;24.83;;
51298;SDS011;37382;45.192;9.790;2023-02-19T09:13:30;45.45;;;27.58;;
51298;SDS011;37382;45.192;9.790;2023-02-19T09:15:58;47.92;;;29.17;;
51298;SDS011;37382;45.192;9.790;2023-02-19T09:18:26;62.50;;;35.13;;
51298;SDS011;37382;45.192;9.790;2023-02-19T09:20:53;50.42;;;27.55;;
51298;SDS011;37382;45.192;9.790;2023-02-19T09:23:21;46.28;;;29.23;;
51298;SDS011;37382;45.192;9.790;2023-02-19T09:25:49;38.83;;;25.60;;
51298;SDS011;37382;45.192;9.790;2023-02-19T09:28:23;35.92;;;25.10;;
51298;SDS011;37382;45.192;9.790;2023-02-19T09:30:50;36.35;;;24.10;;
51298;SDS011;37382;45.192;9.790;2023-02-19T09:33:17;35.72;;;22.80;;
51298;SDS011;37382;45.192;9.790;2023-02-19T09:35:45;43.38;;;27.20;;
51298;SDS011;37382;45.192;9.790;2023-02-19T09:38:12;39.15;;;24.88;;
51298;SDS011;37382;45.192;9.790;2023-02-19T09:40:40;33.10;;;23.40;;
51298;SDS011;37382;45.192;9.790;2023-02-19T09:43:08;30.40;;;22.67;;
51298;SDS011;37382;45.192;9.790;2023-02-19T09:45:43;35.35;;;21.88;;
51298;SDS011;37382;45.192;9.790;2023-02-19T09:48:10;30.23;;;21.98;;
51298;SDS011;37382;45.192;9.790;2023-02-19T09:50:39;29.20;;;21.50;;
51298;SDS011;37382;45.192;9.790;2023-02-19T09:53:15;30.58;;;21.67;;
51298;SDS011;37382;45.192;9.790;2023-02-19T09:55:46;28.60;;;21.52;;
51298;SDS011;37382;45.192;9.790;2023-02-19T09:58:21;33.28;;;20.23;;
51298;SDS011;37382;45.192;9.790;2023-02-19T10:00:54;38.95;;;22.48;;
51298;SDS011;37382;45.192;9.790;2023-02-19T10:03:27;34.05;;;22.80;;
51298;SDS011;37382;45.192;9.790;2023-02-19T10:06:00;30.73;;;21.05;;
51298;SDS011;37382;45.192;9.790;2023-02-19T10:08:34;33.30;;;21.70;;
51298;SDS011;37382;45.192;9.790;2023-02-19T10:11:04;37.20;;;22.50;;
51298;SDS011;37382;45.192;9.790;2023-02-19T10:13:43;32.67;;;21.30;;
51298;SDS011;37382;45.192;9.790;2023-02-19T10:16:15;30.25;;;22.00;;
51298;SDS011;37382;45.192;9.790;2023-02-19T10:18:46;36.78;;;21.85;;
51298;SDS011;37382;45.192;9.790;2023-02-19T10:21:18;34.63;;;23.50;;
51298;SDS011;37382;45.192;9.790;2023-02-19T10:23:52;31.85;;;21.55;;
51298;SDS011;37382;45.192;9.790;2023-02-19T10:26:25;38.22;;;24.77;;
51298;SDS011;37382;45.192;9.790;2023-02-19T10:28:53;38.30;;;24.02;;
51298;SDS011;37382;45.192;9.790;2023-02-19T10:31:22;48.65;;;31.63;;
51298;SDS011;37382;45.192;9.790;2023-02-19T10:33:53;35.20;;;23.67;;
51298;SDS011;37382;45.192;9.790;2023-02-19T10:36:24;36.55;;;23.63;;
51298;SDS011;37382;45.192;9.790;2023-02-19T10:39:18;45.60;;;26.60;;
51298;SDS011;37382;45.192;9.790;2023-02-19T10:41:49;48.10;;;30.40;;
51298;SDS011;37382;45.192;9.790;2023-02-19T10:44:21;41.83;;;29.45;;
51298;SDS011;37382;45.192;9.790;2023-02-19T10:46:56;54.35;;;32.78;;
51298;SDS011;37382;45.192;9.790;2023-02-19T10:49:31;40.17;;;27.45;;
51298;SDS011;37382;45.192;9.790;2023-02-19T10:54:55;46.30;;;30.45;;
51298;SDS011;37382;45.192;9.790;2023-02-19T10:57:41;41.63;;;24.83;;
51298;SDS011;37382;45.192;9.790;2023-02-19T11:02:44;45.53;;;26.30;;
51298;SDS011;37382;45.192;9.790;2023-02-19T11:10:22;35.28;;;24.80;;
51298;SDS011;37382;45.192;9.790;2023-02-19T11:12:58;34.63;;;23.73;;
51298;SDS011;37382;45.192;9.790;2023-02-19T11:15:32;37.50;;;24.10;;
51298;SDS011;37382;45.192;9.790;2023-02-19T11:18:03;39.53;;;23.35;;
51298;SDS011;37382;45.192;9.790;2023-02-19T11:20:45;33.10;;;22.48;;
51298;SDS011;37382;45.192;9.790;2023-02-19T11:23:17;31.58;;;21.50;;
51298;SDS011;37382;45.192;9.790;2023-02-19T11:25:49;37.40;;;22.90;;
51298;SDS011;37382;45.192;9.790;2023-02-19T11:28:34;33.75;;;21.73;;
51298;SDS011;37382;45.192;9.790;2023-02-19T11:31:16;31.27;;;21.42;;
51298;SDS011;37382;45.192;9.790;2023-02-19T11:36:39;32.92;;;22.13;;
51298;SDS011;37382;45.192;9.790;2023-02-19T11:39:18;34.80;;;22.45;;
51298;SDS011;37382;45.192;9.790;2023-02-19T11:55:51;36.25;;;22.15;;
51298;SDS011;37382;45.192;9.790;2023-02-19T11:58:34;32.83;;;20.98;;
51298;SDS011;37382;45.192;9.790;2023-02-19T12:06:52;29.98;;;21.45;;
51298;SDS011;37382;45.192;9.790;2023-02-19T12:09:41;32.60;;;20.77;;
51298;SDS011;37382;45.192;9.790;2023-02-19T12:21:27;31.05;;;20.95;;
51298;SDS011;37382;45.192;9.790;2023-02-19T12:24:22;28.90;;;20.38;;
51298;SDS011;37382;45.192;9.790;2023-02-19T12:41:01;33.88;;;21.33;;
51298;SDS011;37382;45.192;9.790;2023-02-19T12:47:03;26.85;;;17.17;;
51298;SDS011;37382;45.192;9.790;2023-02-19T12:49:39;28.40;;;18.98;;
51298;SDS011;37382;45.192;9.790;2023-02-19T12:52:20;22.65;;;16.83;;
51298;SDS011;37382;45.192;9.790;2023-02-19T12:54:52;22.50;;;14.77;;
51298;SDS011;37382;45.192;9.790;2023-02-19T12:57:26;25.33;;;17.33;;
51298;SDS011;37382;45.192;9.790;2023-02-19T13:11:37;16.98;;;13.13;;
51298;SDS011;37382;45.192;9.790;2023-02-19T13:17:05;20.02;;;14.23;;
51298;SDS011;37382;45.192;9.790;2023-02-19T13:19:44;22.35;;;13.57;;
51298;SDS011;37382;45.192;9.790;2023-02-19T13:25:26;23.90;;;13.10;;
51298;SDS011;37382;45.192;9.790;2023-02-19T13:28:12;20.98;;;13.70;;
51298;SDS011;37382;45.192;9.790;2023-02-19T13:33:40;18.88;;;13.38;;
51298;SDS011;37382;45.192;9.790;2023-02-19T13:36:19;21.33;;;15.15;;
51298;SDS011;37382;45.192;9.790;2023-02-19T13:38:51;21.10;;;14.23;;
51298;SDS011;37382;45.192;9.790;2023-02-19T13:41:30;21.48;;;14.73;;
51298;SDS011;37382;45.192;9.790;2023-02-19T13:44:01;18.92;;;14.00;;
51298;SDS011;37382;45.192;9.790;2023-02-19T13:46:39;20.05;;;13.77;;
51298;SDS011;37382;45.192;9.790;2023-02-19T13:49:23;20.60;;;14.95;;
51298;SDS011;37382;45.192;9.790;2023-02-19T13:51:55;22.50;;;13.98;;
51298;SDS011;37382;45.192;9.790;2023-02-19T13:57:19;18.05;;;13.45;;
51298;SDS011;37382;45.192;9.790;2023-02-19T13:59:49;17.85;;;12.75;;
51298;SDS011;37382;45.192;9.790;2023-02-19T14:05:01;16.92;;;13.40;;
51298;SDS011;37382;45.192;9.790;2023-02-19T14:10:03;20.23;;;13.65;;
51298;SDS011;37382;45.192;9.790;2023-02-19T14:12:35;16.48;;;13.15;;
51298;SDS011;37382;45.192;9.790;2023-02-19T14:21:13;16.67;;;12.38;;
51298;SDS011;37382;45.192;9.790;2023-02-19T14:23:43;17.58;;;14.07;;
51298;SDS011;37382;45.192;9.790;2023-02-19T14:26:17;15.90;;;13.07;;
51298;SDS011;37382;45.192;9.790;2023-02-19T14:28:45;17.45;;;13.80;;
51298;SDS011;37382;45.192;9.790;2023-02-19T14:31:18;21.42;;;14.15;;
51298;SDS011;37382;45.192;9.790;2023-02-19T14:34:02;21.48;;;15.70;;
51298;SDS011;37382;45.192;9.790;2023-02-19T14:39:16;17.08;;;14.07;;
51298;SDS011;37382;45.192;9.790;2023-02-19T14:41:53;19.70;;;14.65;;
51298;SDS011;37382;45.192;9.790;2023-02-19T14:44:36;19.77;;;14.70;;
51298;SDS011;37382;45.192;9.790;2023-02-19T14:47:14;18.40;;;14.77;;
51298;SDS011;37382;45.192;9.790;2023-02-19T14:49:46;20.98;;;15.55;;
51298;SDS011;37382;45.192;9.790;2023-02-19T14:52:25;25.80;;;16.17;;
51298;SDS011;37382;45.192;9.790;2023-02-19T14:55:05;30.25;;;18.05;;
51298;SDS011;37382;45.192;9.790;2023-02-19T14:57:38;26.63;;;18.45;;
51298;SDS011;37382;45.192;9.790;2023-02-19T15:03:03;25.00;;;18.77;;
51298;SDS011;37382;45.192;9.790;2023-02-19T15:05:32;23.95;;;17.92;;
51298;SDS011;37382;45.192;9.790;2023-02-19T15:08:11;28.63;;;18.88;;
51298;SDS011;37382;45.192;9.790;2023-02-19T15:10:47;28.38;;;18.42;;
51298;SDS011;37382;45.192;9.790;2023-02-19T15:13:17;24.88;;;19.10;;
51298;SDS011;37382;45.192;9.790;2023-02-19T15:15:48;24.55;;;18.88;;
51298;SDS011;37382;45.192;9.790;2023-02-19T15:18:17;30.60;;;18.67;;
51298;SDS011;37382;45.192;9.790;2023-02-19T15:20:47;24.75;;;18.85;;
51298;SDS011;37382;45.192;9.790;2023-02-19T15:23:20;22.33;;;17.65;;
51298;SDS011;37382;45.192;9.790;2023-02-19T15:25:50;22.67;;;16.95;;
51298;SDS011;37382;45.192;9.790;2023-02-19T15:33:25;25.45;;;18.02;;
51298;SDS011;37382;45.192;9.790;2023-02-19T15:35:54;27.15;;;18.27;;
51298;SDS011;37382;45.192;9.790;2023-02-19T15:38:25;27.35;;;18.38;;
51298;SDS011;37382;45.192;9.790;2023-02-19T15:40:55;24.75;;;17.77;;
51298;SDS011;37382;45.192;9.790;2023-02-19T15:46:04;26.65;;;19.20;;
51298;SDS011;37382;45.192;9.790;2023-02-19T15:48:39;30.38;;;19.38;;
51298;SDS011;37382;45.192;9.790;2023-02-19T15:51:13;26.30;;;19.67;;
51298;SDS011;37382;45.192;9.790;2023-02-19T15:53:46;30.10;;;19.33;;
51298;SDS011;37382;45.192;9.790;2023-02-19T15:59:12;36.75;;;21.98;;
51298;SDS011;37382;45.192;9.790;2023-02-19T16:01:41;37.35;;;24.25;;
51298;SDS011;37382;45.192;9.790;2023-02-19T16:04:13;41.22;;;25.15;;
51298;SDS011;37382;45.192;9.790;2023-02-19T16:06:56;27.65;;;19.90;;
51298;SDS011;37382;45.192;9.790;2023-02-19T16:09:29;29.20;;;19.70;;
51298;SDS011;37382;45.192;9.790;2023-02-19T16:11:59;29.95;;;18.73;;
51298;SDS011;37382;45.192;9.790;2023-02-19T16:17:11;24.33;;;18.30;;
51298;SDS011;37382;45.192;9.790;2023-02-19T16:22:27;28.02;;;18.33;;
51298;SDS011;37382;45.192;9.790;2023-02-19T16:24:57;27.45;;;18.27;;
51298;SDS011;37382;45.192;9.790;2023-02-19T16:27:36;41.63;;;25.45;;
51298;SDS011;37382;45.192;9.790;2023-02-19T16:30:08;54.13;;;33.90;;
51298;SDS011;37382;45.192;9.790;2023-02-19T16:32:42;55.08;;;35.10;;
51298;SDS011;37382;45.192;9.790;2023-02-19T16:38:01;34.50;;;23.95;;
51298;SDS011;37382;45.192;9.790;2023-02-19T16:45:57;95.22;;;68.47;;
51298;SDS011;37382;45.192;9.790;2023-02-19T16:48:25;55.50;;;37.92;;
51298;SDS011;37382;45.192;9.790;2023-02-19T16:50:53;45.50;;;32.58;;
51298;SDS011;37382;45.192;9.790;2023-02-19T16:53:22;45.33;;;32.97;;
51298;SDS011;37382;45.192;9.790;2023-02-19T16:55:55;33.72;;;24.52;;
51298;SDS011;37382;45.192;9.790;2023-02-19T16:58:22;39.28;;;26.20;;
51298;SDS011;37382;45.192;9.790;2023-02-19T17:00:50;43.50;;;26.10;;
51298;SDS011;37382;45.192;9.790;2023-02-19T17:03:19;39.58;;;26.30;;
51298;SDS011;37382;45.192;9.790;2023-02-19T17:05:49;46.92;;;29.67;;
51298;SDS011;37382;45.192;9.790;2023-02-19T17:08:25;49.67;;;31.90;;
51298;SDS011;37382;45.192;9.790;2023-02-19T17:10:57;45.78;;;29.50;;
51298;SDS011;37382;45.192;9.790;2023-02-19T17:13:25;42.65;;;29.17;;
51298;SDS011;37382;45.192;9.790;2023-02-19T17:15:52;52.47;;;33.97;;
51298;SDS011;37382;45.192;9.790;2023-02-19T17:18:20;42.80;;;28.55;;
51298;SDS011;37382;45.192;9.790;2023-02-19T17:20:59;44.22;;;29.23;;
51298;SDS011;37382;45.192;9.790;2023-02-19T17:23:36;44.97;;;31.10;;
51298;SDS011;37382;45.192;9.790;2023-02-19T17:26:04;54.13;;;37.53;;
51298;SDS011;37382;45.192;9.790;2023-02-19T17:28:32;50.25;;;33.63;;
51298;SDS011;37382;45.192;9.790;2023-02-19T17:30:59;51.38;;;31.85;;
51298;SDS011;37382;45.192;9.790;2023-02-19T17:33:27;43.88;;;30.02;;
51298;SDS011;37382;45.192;9.790;2023-02-19T17:35:56;64.80;;;41.30;;
51298;SDS011;37382;45.192;9.790;2023-02-19T17:38:24;85.50;;;47.20;;
51298;SDS011;37382;45.192;9.790;2023-02-19T17:40:51;72.75;;;44.38;;
51298;SDS011;37382;45.192;9.790;2023-02-19T17:43:19;73.35;;;46.47;;
51298;SDS011;37382;45.192;9.790;2023-02-19T17:45:46;66.72;;;44.53;;
51298;SDS011;37382;45.192;9.790;2023-02-19T17:48:14;57.00;;;34.85;;
51298;SDS011;37382;45.192;9.790;2023-02-19T17:50:41;49.63;;;31.52;;
51298;SDS011;37382;45.192;9.790;2023-02-19T17:53:09;45.25;;;30.45;;
51298;SDS011;37382;45.192;9.790;2023-02-19T17:55:37;53.03;;;32.47;;
51298;SDS011;37382;45.192;9.790;2023-02-19T17:58:04;53.20;;;32.17;;
51298;SDS011;37382;45.192;9.790;2023-02-19T18:00:32;50.22;;;31.60;;
51298;SDS011;37382;45.192;9.790;2023-02-19T18:03:01;63.30;;;35.70;;
51298;SDS011;37382;45.192;9.790;2023-02-19T18:05:29;58.28;;;34.63;;
51298;SDS011;37382;45.192;9.790;2023-02-19T18:07:57;73.78;;;44.42;;
51298;SDS011;37382;45.192;9.790;2023-02-19T18:10:24;65.32;;;41.33;;
51298;SDS011;37382;45.192;9.790;2023-02-19T18:12:52;62.42;;;39.72;;
51298;SDS011;37382;45.192;9.790;2023-02-19T18:15:24;70.60;;;44.42;;
51298;SDS011;37382;45.192;9.790;2023-02-19T18:17:53;81.72;;;52.42;;
51298;SDS011;37382;45.192;9.790;2023-02-19T18:20:23;69.47;;;43.65;;
51298;SDS011;37382;45.192;9.790;2023-02-19T18:22:55;66.20;;;41.90;;
51298;SDS011;37382;45.192;9.790;2023-02-19T18:25:23;69.80;;;44.63;;
51298;SDS011;37382;45.192;9.790;2023-02-19T18:27:51;66.28;;;39.33;;
51298;SDS011;37382;45.192;9.790;2023-02-19T18:30:19;55.53;;;37.05;;
51298;SDS011;37382;45.192;9.790;2023-02-19T18:32:49;67.38;;;36.75;;
51298;SDS011;37382;45.192;9.790;2023-02-19T18:35:17;53.35;;;32.80;;
51298;SDS011;37382;45.192;9.790;2023-02-19T18:37:52;58.75;;;38.28;;
51298;SDS011;37382;45.192;9.790;2023-02-19T18:40:21;53.42;;;35.42;;
51298;SDS011;37382;45.192;9.790;2023-02-19T18:42:51;51.55;;;32.90;;
51298;SDS011;37382;45.192;9.790;2023-02-19T18:45:19;70.25;;;50.30;;
51298;SDS011;37382;45.192;9.790;2023-02-19T18:47:47;79.03;;;55.22;;
51298;SDS011;37382;45.192;9.790;2023-02-19T18:50:16;63.75;;;41.50;;
51298;SDS011;37382;45.192;9.790;2023-02-19T18:52:44;62.95;;;40.15;;
51298;SDS011;37382;45.192;9.790;2023-02-19T18:55:11;59.55;;;39.00;;
51298;SDS011;37382;45.192;9.790;2023-02-19T18:57:39;70.10;;;45.35;;
51298;SDS011;37382;45.192;9.790;2023-02-19T19:00:07;59.25;;;39.67;;
51298;SDS011;37382;45.192;9.790;2023-02-19T19:02:35;59.10;;;41.13;;
51298;SDS011;37382;45.192;9.790;2023-02-19T19:05:19;54.70;;;37.90;;
51298;SDS011;37382;45.192;9.790;2023-02-19T19:07:49;74.15;;;40.40;;
51298;SDS011;37382;45.192;9.790;2023-02-19T19:10:19;77.05;;;40.50;;
51298;SDS011;37382;45.192;9.790;2023-02-19T19:12:48;82.32;;;40.33;;
51298;SDS011;37382;45.192;9.790;2023-02-19T19:15:15;76.43;;;41.95;;
51298;SDS011;37382;45.192;9.790;2023-02-19T19:17:45;72.22;;;41.38;;
51298;SDS011;37382;45.192;9.790;2023-02-19T19:20:14;63.42;;;35.22;;
51298;SDS011;37382;45.192;9.790;2023-02-19T19:22:44;53.47;;;32.63;;
51298;SDS011;37382;45.192;9.790;2023-02-19T19:25:14;51.80;;;32.17;;
51298;SDS011;37382;45.192;9.790;2023-02-19T19:27:41;53.08;;;31.88;;
51298;SDS011;37382;45.192;9.790;2023-02-19T19:30:09;52.80;;;33.30;;
51298;SDS011;37382;45.192;9.790;2023-02-19T19:32:37;53.50;;;35.35;;
51298;SDS011;37382;45.192;9.790;2023-02-19T19:35:04;53.75;;;33.50;;
51298;SDS011;37382;45.192;9.790;2023-02-19T19:37:32;55.80;;;34.63;;
51298;SDS011;37382;45.192;9.790;2023-02-19T19:40:00;52.53;;;33.72;;
51298;SDS011;37382;45.192;9.790;2023-02-19T19:42:27;52.00;;;33.70;;
51298;SDS011;37382;45.192;9.790;2023-02-19T19:44:54;58.10;;;33.80;;
51298;SDS011;37382;45.192;9.790;2023-02-19T19:47:23;50.25;;;32.75;;
51298;SDS011;37382;45.192;9.790;2023-02-19T19:49:50;52.28;;;33.78;;
51298;SDS011;37382;45.192;9.790;2023-02-19T19:52:17;59.15;;;33.92;;
51298;SDS011;37382;45.192;9.790;2023-02-19T19:54:45;50.58;;;31.58;;
51298;SDS011;37382;45.192;9.790;2023-02-19T19:57:14;44.72;;;29.27;;
51298;SDS011;37382;45.192;9.790;2023-02-19T19:59:42;48.88;;;30.70;;
51298;SDS011;37382;45.192;9.790;2023-02-19T20:02:09;51.55;;;33.15;;
51298;SDS011;37382;45.192;9.790;2023-02-19T20:04:37;56.30;;;34.72;;
51298;SDS011;37382;45.192;9.790;2023-02-19T20:07:05;63.05;;;38.42;;
51298;SDS011;37382;45.192;9.790;2023-02-19T20:09:33;74.43;;;44.08;;
51298;SDS011;37382;45.192;9.790;2023-02-19T20:12:00;84.13;;;42.92;;
51298;SDS011;37382;45.192;9.790;2023-02-19T20:14:29;87.13;;;49.15;;
51298;SDS011;37382;45.192;9.790;2023-02-19T20:16:57;94.22;;;51.65;;
51298;SDS011;37382;45.192;9.790;2023-02-19T20:19:24;94.68;;;51.67;;
51298;SDS011;37382;45.192;9.790;2023-02-19T20:21:52;100.53;;;53.60;;
51298;SDS011;37382;45.192;9.790;2023-02-19T20:24:21;94.93;;;55.15;;
51298;SDS011;37382;45.192;9.790;2023-02-19T20:26:57;106.35;;;57.05;;
51298;SDS011;37382;45.192;9.790;2023-02-19T20:29:27;117.43;;;59.92;;
51298;SDS011;37382;45.192;9.790;2023-02-19T20:31:56;116.78;;;62.25;;
51298;SDS011;37382;45.192;9.790;2023-02-19T20:34:26;116.03;;;62.20;;
51298;SDS011;37382;45.192;9.790;2023-02-19T20:36:54;123.70;;;61.53;;
51298;SDS011;37382;45.192;9.790;2023-02-19T20:39:21;120.50;;;64.90;;
51298;SDS011;37382;45.192;9.790;2023-02-19T20:41:55;121.50;;;66.47;;
51298;SDS011;37382;45.192;9.790;2023-02-19T20:44:25;125.30;;;65.13;;
51298;SDS011;37382;45.192;9.790;2023-02-19T20:46:54;126.22;;;67.05;;
51298;SDS011;37382;45.192;9.790;2023-02-19T20:49:23;124.20;;;67.05;;
51298;SDS011;37382;45.192;9.790;2023-02-19T20:51:57;131.05;;;69.18;;
51298;SDS011;37382;45.192;9.790;2023-02-19T20:54:27;135.20;;;70.25;;
51298;SDS011;37382;45.192;9.790;2023-02-19T20:56:58;145.90;;;76.32;;
51298;SDS011;37382;45.192;9.790;2023-02-19T20:59:28;148.10;;;80.25;;
51298;SDS011;37382;45.192;9.790;2023-02-19T21:02:01;148.90;;;77.88;;
51298;SDS011;37382;45.192;9.790;2023-02-19T21:04:29;149.75;;;78.32;;
51298;SDS011;37382;45.192;9.790;2023-02-19T21:06:57;145.65;;;72.78;;
51298;SDS011;37382;45.192;9.790;2023-02-19T21:09:25;150.23;;;74.70;;
51298;SDS011;37382;45.192;9.790;2023-02-19T21:11:52;153.65;;;75.20;;
51298;SDS011;37382;45.192;9.790;2023-02-19T21:14:20;153.05;;;73.93;;
51298;SDS011;37382;45.192;9.790;2023-02-19T21:16:47;165.43;;;79.20;;
51298;SDS011;37382;45.192;9.790;2023-02-19T21:19:15;163.25;;;76.95;;
51298;SDS011;37382;45.192;9.790;2023-02-19T21:21:43;151.35;;;74.38;;
51298;SDS011;37382;45.192;9.790;2023-02-19T21:24:12;161.05;;;75.63;;
51298;SDS011;37382;45.192;9.790;2023-02-19T21:26:42;162.63;;;78.00;;
51298;SDS011;37382;45.192;9.790;2023-02-19T21:29:12;172.07;;;81.40;;
51298;SDS011;37382;45.192;9.790;2023-02-19T21:31:43;168.27;;;79.88;;
51298;SDS011;37382;45.192;9.790;2023-02-19T21:34:12;173.57;;;83.55;;
51298;SDS011;37382;45.192;9.790;2023-02-19T21:36:41;172.50;;;78.47;;
51298;SDS011;37382;45.192;9.790;2023-02-19T21:39:09;171.57;;;82.13;;
51298;SDS011;37382;45.192;9.790;2023-02-19T21:41:39;164.60;;;78.38;;
51298;SDS011;37382;45.192;9.790;2023-02-19T21:44:07;167.45;;;78.88;;
51298;SDS011;37382;45.192;9.790;2023-02-19T21:46:34;173.70;;;81.22;;
51298;SDS011;37382;45.192;9.790;2023-02-19T21:49:01;167.93;;;79.70;;
51298;SDS011;37382;45.192;9.790;2023-02-19T21:51:31;181.80;;;80.05;;
51298;SDS011;37382;45.192;9.790;2023-02-19T21:54:03;183.40;;;79.00;;